createdAt,value
2023-03-16T00:00:39.578Z,48.8
2023-03-16T00:06:33.456Z,48.8
2023-03-16T00:12:27.486Z,48.8
2023-03-16T00:18:05.964Z,48.7
2023-03-16T00:23:28.775Z,48.7
2023-03-16T00:28:50.644Z,48.6
2023-03-16T00:34:43.905Z,48.6
2023-03-16T00:40:37.302Z,48.6
2023-03-16T00:46:30.826Z,48.5
2023-03-16T00:51:52.859Z,48.5
2023-03-16T00:57:46.719Z,48.4
2023-03-16T01:03:24.829Z,48.4
2023-03-16T01:09:16.777Z,48.4
2023-03-16T01:14:22.987Z,48.4
2023-03-16T01:20:15.617Z,48.3
2023-03-16T01:25:21.089Z,48.3
2023-03-16T01:30:59.186Z,48.3
2023-03-16T01:36:53.360Z,48.3
2023-03-16T01:42:44.892Z,48.2
2023-03-16T01:48:07.009Z,48.1
2023-03-16T01:53:46.697Z,48.1
2023-03-16T01:59:38.336Z,48.1
2023-03-16T02:05:02.658Z,48.1
2023-03-16T02:10:24.679Z,48.6
2023-03-16T02:16:18.771Z,50
2023-03-16T02:21:56.780Z,51.6
2023-03-16T02:27:49.934Z,53.3
2023-03-16T02:33:43.027Z,55.1
2023-03-16T02:39:21.339Z,56.2
2023-03-16T02:45:15.047Z,56.3
2023-03-16T02:50:53.180Z,56.3
2023-03-16T02:56:45.820Z,56.9
2023-03-16T03:07:31.974Z,58.8
2023-03-16T03:13:24.649Z,58.8
2023-03-16T03:19:17.779Z,58.8
2023-03-16T03:25:09.749Z,58.8
2023-03-16T03:30:47.285Z,58.7
2023-03-16T03:36:40.651Z,58.7
2023-03-16T03:42:02.198Z,58.6
2023-03-16T03:58:11.125Z,58.5
2023-03-16T04:04:05.677Z,58.4
2023-03-16T04:09:58.763Z,58.4
2023-03-16T04:15:35.901Z,58.4
2023-03-16T04:21:13.274Z,58.3
2023-03-16T04:26:52.146Z,58.3
2023-03-16T04:32:13.709Z,58.3
2023-03-16T04:37:51.728Z,58.2
2023-03-16T04:43:29.723Z,58.1
2023-03-16T04:49:07.299Z,58.1
2023-03-16T04:54:45.532Z,58.1
2023-03-16T05:00:38.915Z,58.1
2023-03-16T05:06:37.486Z,57.9
2023-03-16T05:12:14.463Z,57.9
2023-03-16T05:17:36.698Z,57.9
2023-03-16T05:23:29.289Z,57.8
2023-03-16T05:40:26.332Z,57.7
2023-03-16T05:46:20.732Z,57.6
2023-03-16T05:51:58.352Z,57.6
2023-03-16T05:57:36.534Z,57.5
2023-03-16T06:03:30.045Z,57.5
2023-03-16T06:09:24.525Z,57.4
2023-03-16T06:15:17.285Z,57.4
2023-03-16T06:21:09.211Z,57.3
2023-03-16T06:27:04.031Z,57.3
2023-03-16T06:32:56.798Z,57.3
2023-03-16T06:38:52.389Z,57.2
2023-03-16T06:44:48.869Z,57.1
2023-03-16T06:50:26.607Z,57.1
2023-03-16T06:56:05.386Z,57
2023-03-16T07:01:58.270Z,56.9
2023-03-16T07:07:50.412Z,56.9
2023-03-16T07:13:43.314Z,56.9
2023-03-16T07:19:41.252Z,56.8
2023-03-16T07:25:34.895Z,56.8
2023-03-16T07:31:49.497Z,56.7
2023-03-16T07:37:43.245Z,56.6
2023-03-16T07:43:20.213Z,56.6
2023-03-16T07:48:57.312Z,56.6
2023-03-16T07:54:36.800Z,56.5
2023-03-16T08:00:45.562Z,56.4
2023-03-16T08:06:39.811Z,56.4
2023-03-16T08:12:35.834Z,56.4
2023-03-16T08:18:13.599Z,56.3
2023-03-16T08:24:18.503Z,56.3
2023-03-16T08:30:12.136Z,56.3
2023-03-16T08:35:51.154Z,56.2
2023-03-16T08:41:40.521Z,56.1
2023-03-16T08:47:19.387Z,56.1
2023-03-16T08:52:56.252Z,56.1
2023-03-16T08:59:00.199Z,56
2023-03-16T09:05:06.993Z,55.9
2023-03-16T09:11:07.491Z,55.9
2023-03-16T09:16:45.955Z,55.8
2023-03-16T09:22:40.785Z,55.8
2023-03-16T09:28:37.476Z,55.8
2023-03-16T09:34:16.533Z,55.7
2023-03-16T09:40:11.976Z,55.6
2023-03-16T09:45:51.454Z,55.6
2023-03-16T09:51:22.718Z,55.6
2023-03-16T09:56:59.766Z,55.5
2023-03-16T10:02:37.246Z,55.5
2023-03-16T10:08:29.774Z,55.4
2023-03-16T10:14:22.531Z,55.4
2023-03-16T10:20:15.361Z,55.3
2023-03-16T10:26:07.572Z,55.3
2023-03-16T10:31:45.264Z,55.3
2023-03-16T10:37:25.478Z,55.2
2023-03-16T10:43:18.375Z,55.1
2023-03-16T10:49:14.106Z,55.1
2023-03-16T10:55:06.955Z,55.1
2023-03-16T11:00:59.852Z,55
2023-03-16T11:06:54.098Z,54.9
2023-03-16T11:12:59.321Z,54.9
2023-03-16T11:19:04.781Z,54.8
2023-03-16T11:24:58.220Z,54.8
2023-03-16T11:30:50.093Z,54.8
2023-03-16T11:37:02.525Z,54.7
2023-03-16T11:42:40.263Z,54.7
2023-03-16T11:48:32.181Z,54.6
2023-03-16T11:54:24.548Z,54.6
2023-03-16T12:00:11.780Z,54.6
2023-03-16T12:06:24.377Z,54.5
2023-03-16T12:12:01.884Z,54.4
2023-03-16T12:18:11.750Z,54.4
2023-03-16T12:24:04.703Z,54.3
2023-03-16T12:29:57.795Z,54.3
2023-03-16T12:35:35.892Z,54.3
2023-03-16T12:41:27.981Z,54.3
2023-03-16T12:47:21.082Z,54.1
2023-03-16T12:53:01.063Z,54.1
2023-03-16T12:58:38.816Z,54.1
2023-03-16T13:04:00.445Z,54.1
2023-03-16T13:09:43.695Z,54
2023-03-16T13:15:21.793Z,53.9
2023-03-16T13:21:18.819Z,53.9
2023-03-16T13:27:12.864Z,53.9
2023-03-16T13:32:34.775Z,53.8
2023-03-16T13:37:41.771Z,53.8
2023-03-16T13:43:23.205Z,53.8
2023-03-16T13:49:00.619Z,53.7
2023-03-16T13:54:37.120Z,53.6
2023-03-16T14:00:15.751Z,53.6
2023-03-16T14:05:53.174Z,53.6
2023-03-16T14:11:34.117Z,53.5
2023-03-16T14:17:32.161Z,53.5
2023-03-16T14:23:33.026Z,53.4
2023-03-16T14:29:26.058Z,53.4
2023-03-16T14:35:20.479Z,53.3
2023-03-16T14:40:58.733Z,53.3
2023-03-16T14:46:52.562Z,53.3
2023-03-16T14:52:30.707Z,53.2
2023-03-16T14:58:23.395Z,53.2
2023-03-16T15:04:34.248Z,53.1
2023-03-16T15:10:29.626Z,53.1
2023-03-16T15:16:06.542Z,53.1
2023-03-16T15:21:59.186Z,52.9
2023-03-16T15:27:36.644Z,52.9
2023-03-16T15:33:29.394Z,52.9
2023-03-16T15:39:07.212Z,52.9
2023-03-16T15:45:12.381Z,52.8
2023-03-16T15:51:11.592Z,52.8
2023-03-16T15:57:26.302Z,52.7
2023-03-16T16:03:19.856Z,52.6
2023-03-16T16:08:56.621Z,52.6
2023-03-16T16:14:32.514Z,52.6
2023-03-16T16:20:39.433Z,52.6
2023-03-16T16:26:16.668Z,52.5
2023-03-16T16:31:54.063Z,52.4
2023-03-16T16:36:57.841Z,52.4
2023-03-16T16:47:12.801Z,52.3
2023-03-16T16:52:34.670Z,52.3
2023-03-16T16:57:59.884Z,52.3
2023-03-16T17:03:32.393Z,52.3
2023-03-16T17:08:55.753Z,52.2
2023-03-16T17:14:17.723Z,52.2
2023-03-16T17:19:41.058Z,52.1
2023-03-16T17:25:35.068Z,52.1
2023-03-16T17:30:57.809Z,52
2023-03-16T17:36:36.294Z,52
2023-03-16T17:47:57.370Z,51.9
2023-03-16T17:53:50.840Z,51.9
2023-03-16T17:59:44.042Z,51.8
2023-03-16T18:05:08.595Z,51.8
2023-03-16T18:11:02.658Z,51.8
2023-03-16T18:16:25.442Z,51.7
2023-03-16T18:21:47.546Z,51.6
2023-03-16T18:27:42.394Z,51.6
2023-03-16T18:33:36.679Z,51.6
2023-03-16T18:39:29.409Z,51.5
2023-03-16T18:45:06.883Z,51.5
2023-03-16T18:50:45.468Z,51.4
2023-03-16T18:56:38.697Z,51.4
2023-03-16T19:02:00.686Z,51.4
2023-03-16T19:07:09.423Z,51.3
2023-03-16T19:12:31.541Z,51.3
2023-03-16T19:18:10.050Z,51.3
2023-03-16T19:23:47.675Z,51.2
2023-03-16T19:29:25.603Z,51.2
2023-03-16T19:34:47.946Z,51.1
2023-03-16T19:40:39.295Z,51.1
2023-03-16T19:46:33.442Z,51.1
2023-03-16T19:52:26.034Z,51.1
2023-03-16T19:58:19.206Z,51.1
2023-03-16T20:04:12.132Z,51
2023-03-16T20:10:05.518Z,51
2023-03-16T20:15:43.630Z,50.9
2023-03-16T20:21:06.607Z,50.9
2023-03-16T20:26:28.076Z,50.9
2023-03-16T20:32:21.304Z,50.8
2023-03-16T20:37:59.372Z,50.8
2023-03-16T20:43:38.234Z,50.8
2023-03-16T20:49:15.662Z,50.8
2023-03-16T20:54:36.690Z,50.7
2023-03-16T21:00:30.064Z,50.7
2023-03-16T21:06:23.684Z,50.6
2023-03-16T21:12:25.442Z,50.6
2023-03-16T21:17:48.577Z,50.4
2023-03-16T21:23:41.138Z,50.3
2023-03-16T21:29:34.871Z,50.2
2023-03-16T21:35:27.643Z,50.1
2023-03-16T21:41:22.683Z,50
2023-03-16T21:47:16.334Z,49.9
2023-03-16T21:53:09.582Z,49.9
2023-03-16T21:58:33.742Z,49.8
2023-03-16T22:04:39.540Z,49.8
2023-03-16T22:10:33.183Z,49.8
2023-03-16T22:16:11.101Z,49.6
2023-03-16T22:22:03.959Z,49.6
2023-03-16T22:27:41.834Z,49.6
2023-03-16T22:33:19.306Z,49.5
2023-03-16T22:39:11.833Z,49.4
2023-03-16T22:45:04.040Z,49.4
2023-03-16T22:50:41.516Z,49.3
2023-03-16T22:56:35.216Z,49.3
2023-03-16T23:02:28.946Z,49.3
2023-03-16T23:08:22.484Z,49.2
2023-03-16T23:14:02.005Z,49.1
2023-03-16T23:20:08.288Z,49.1
2023-03-16T23:26:08.816Z,49
2023-03-16T23:31:46.760Z,49
2023-03-16T23:37:24.678Z,48.9
2023-03-16T23:43:01.636Z,48.9
2023-03-16T23:48:39.473Z,48.8
2023-03-16T23:54:17.230Z,48.8
2023-03-16T23:59:53.841Z,48.8
